sensor_id;sensor_type;location;lat;lon;timestamp;P1;durP1;ratioP1;P2;durP2;ratioP2
45322;SDS011;31382;50.200;8.674;2023-11-19T00:00:15;17.65;;;6.25;;
45322;SDS011;31382;50.200;8.674;2023-11-19T00:05:17;11.73;;;5.93;;
45322;SDS011;31382;50.200;8.674;2023-11-19T00:10:19;12.95;;;6.05;;
45322;SDS011;31382;50.200;8.674;2023-11-19T00:15:22;12.05;;;5.95;;
45322;SDS011;31382;50.200;8.674;2023-11-19T00:20:25;14.02;;;5.80;;
45322;SDS011;31382;50.200;8.674;2023-11-19T00:25:26;15.68;;;5.75;;
45322;SDS011;31382;50.200;8.674;2023-11-19T00:30:28;12.80;;;5.68;;
45322;SDS011;31382;50.200;8.674;2023-11-19T00:35:29;12.32;;;5.97;;
45322;SDS011;31382;50.200;8.674;2023-11-19T00:40:32;13.10;;;6.30;;
45322;SDS011;31382;50.200;8.674;2023-11-19T00:45:34;11.57;;;6.20;;
45322;SDS011;31382;50.200;8.674;2023-11-19T00:50:35;14.95;;;6.80;;
45322;SDS011;31382;50.200;8.674;2023-11-19T00:55:39;12.50;;;6.90;;
45322;SDS011;31382;50.200;8.674;2023-11-19T01:00:43;13.93;;;6.05;;
45322;SDS011;31382;50.200;8.674;2023-11-19T01:05:46;17.38;;;6.88;;
45322;SDS011;31382;50.200;8.674;2023-11-19T01:10:48;14.30;;;6.85;;
45322;SDS011;31382;50.200;8.674;2023-11-19T01:15:49;13.50;;;6.88;;
45322;SDS011;31382;50.200;8.674;2023-11-19T01:20:51;16.00;;;6.47;;
45322;SDS011;31382;50.200;8.674;2023-11-19T01:25:52;13.60;;;6.82;;
45322;SDS011;31382;50.200;8.674;2023-11-19T01:30:53;14.73;;;6.88;;
45322;SDS011;31382;50.200;8.674;2023-11-19T01:35:55;15.73;;;5.68;;
45322;SDS011;31382;50.200;8.674;2023-11-19T01:40:59;12.30;;;6.78;;
45322;SDS011;31382;50.200;8.674;2023-11-19T01:46:02;12.15;;;6.57;;
45322;SDS011;31382;50.200;8.674;2023-11-19T01:51:06;16.52;;;6.80;;
45322;SDS011;31382;50.200;8.674;2023-11-19T01:56:09;15.82;;;6.25;;
45322;SDS011;31382;50.200;8.674;2023-11-19T02:01:13;13.07;;;5.63;;
45322;SDS011;31382;50.200;8.674;2023-11-19T02:06:14;14.10;;;6.35;;
45322;SDS011;31382;50.200;8.674;2023-11-19T02:11:16;10.70;;;5.47;;
45322;SDS011;31382;50.200;8.674;2023-11-19T02:16:18;11.82;;;5.85;;
45322;SDS011;31382;50.200;8.674;2023-11-19T02:21:19;11.90;;;5.57;;
45322;SDS011;31382;50.200;8.674;2023-11-19T02:26:26;10.45;;;5.18;;
45322;SDS011;31382;50.200;8.674;2023-11-19T02:31:34;12.43;;;5.53;;
45322;SDS011;31382;50.200;8.674;2023-11-19T02:36:36;10.95;;;5.32;;
45322;SDS011;31382;50.200;8.674;2023-11-19T02:41:38;11.50;;;5.40;;
45322;SDS011;31382;50.200;8.674;2023-11-19T02:46:40;10.80;;;5.70;;
45322;SDS011;31382;50.200;8.674;2023-11-19T02:51:43;9.40;;;5.43;;
45322;SDS011;31382;50.200;8.674;2023-11-19T02:56:45;12.85;;;5.55;;
45322;SDS011;31382;50.200;8.674;2023-11-19T03:01:49;8.15;;;4.85;;
45322;SDS011;31382;50.200;8.674;2023-11-19T03:06:51;11.68;;;5.05;;
45322;SDS011;31382;50.200;8.674;2023-11-19T03:11:54;12.27;;;4.40;;
45322;SDS011;31382;50.200;8.674;2023-11-19T03:16:56;12.20;;;4.95;;
45322;SDS011;31382;50.200;8.674;2023-11-19T03:21:58;9.13;;;4.43;;
45322;SDS011;31382;50.200;8.674;2023-11-19T03:27:01;7.95;;;4.40;;
45322;SDS011;31382;50.200;8.674;2023-11-19T03:32:02;8.27;;;4.38;;
45322;SDS011;31382;50.200;8.674;2023-11-19T03:37:04;10.07;;;4.35;;
45322;SDS011;31382;50.200;8.674;2023-11-19T03:42:05;8.35;;;3.78;;
45322;SDS011;31382;50.200;8.674;2023-11-19T03:47:06;8.77;;;4.13;;
45322;SDS011;31382;50.200;8.674;2023-11-19T03:52:08;6.90;;;3.40;;
45322;SDS011;31382;50.200;8.674;2023-11-19T03:57:20;8.23;;;3.53;;
45322;SDS011;31382;50.200;8.674;2023-11-19T04:02:22;6.32;;;3.17;;
45322;SDS011;31382;50.200;8.674;2023-11-19T04:07:25;6.70;;;3.65;;
45322;SDS011;31382;50.200;8.674;2023-11-19T04:12:26;10.90;;;4.60;;
45322;SDS011;31382;50.200;8.674;2023-11-19T04:17:27;7.78;;;4.03;;
45322;SDS011;31382;50.200;8.674;2023-11-19T04:22:29;10.10;;;4.10;;
45322;SDS011;31382;50.200;8.674;2023-11-19T04:27:31;6.55;;;3.40;;
45322;SDS011;31382;50.200;8.674;2023-11-19T04:32:32;10.32;;;4.55;;
45322;SDS011;31382;50.200;8.674;2023-11-19T04:37:34;10.38;;;3.97;;
45322;SDS011;31382;50.200;8.674;2023-11-19T04:42:36;11.40;;;4.47;;
45322;SDS011;31382;50.200;8.674;2023-11-19T04:47:37;10.32;;;4.78;;
45322;SDS011;31382;50.200;8.674;2023-11-19T04:52:39;9.93;;;3.92;;
45322;SDS011;31382;50.200;8.674;2023-11-19T04:57:46;6.78;;;3.53;;
45322;SDS011;31382;50.200;8.674;2023-11-19T05:02:48;6.60;;;4.00;;
45322;SDS011;31382;50.200;8.674;2023-11-19T05:07:50;9.45;;;3.88;;
45322;SDS011;31382;50.200;8.674;2023-11-19T05:12:51;8.00;;;4.63;;
45322;SDS011;31382;50.200;8.674;2023-11-19T05:17:53;11.48;;;4.00;;
45322;SDS011;31382;50.200;8.674;2023-11-19T05:22:54;10.25;;;3.75;;
45322;SDS011;31382;50.200;8.674;2023-11-19T05:27:56;4.80;;;3.05;;
45322;SDS011;31382;50.200;8.674;2023-11-19T05:32:57;5.93;;;3.55;;
45322;SDS011;31382;50.200;8.674;2023-11-19T05:37:59;6.07;;;2.95;;
45322;SDS011;31382;50.200;8.674;2023-11-19T05:43:00;13.50;;;6.95;;
45322;SDS011;31382;50.200;8.674;2023-11-19T05:48:02;8.10;;;3.85;;
45322;SDS011;31382;50.200;8.674;2023-11-19T05:53:05;9.80;;;5.00;;
45322;SDS011;31382;50.200;8.674;2023-11-19T05:58:07;10.20;;;4.68;;
45322;SDS011;31382;50.200;8.674;2023-11-19T06:03:12;5.78;;;4.00;;
45322;SDS011;31382;50.200;8.674;2023-11-19T06:08:14;8.07;;;3.75;;
45322;SDS011;31382;50.200;8.674;2023-11-19T06:13:15;6.65;;;3.72;;
45322;SDS011;31382;50.200;8.674;2023-11-19T06:18:17;12.38;;;6.22;;
45322;SDS011;31382;50.200;8.674;2023-11-19T06:23:21;9.75;;;4.60;;
45322;SDS011;31382;50.200;8.674;2023-11-19T06:28:23;9.65;;;4.50;;
45322;SDS011;31382;50.200;8.674;2023-11-19T06:33:24;10.43;;;4.72;;
45322;SDS011;31382;50.200;8.674;2023-11-19T06:38:26;11.13;;;4.55;;
45322;SDS011;31382;50.200;8.674;2023-11-19T06:43:27;12.68;;;5.13;;
45322;SDS011;31382;50.200;8.674;2023-11-19T06:48:43;12.30;;;5.50;;
45322;SDS011;31382;50.200;8.674;2023-11-19T06:53:46;8.90;;;4.82;;
45322;SDS011;31382;50.200;8.674;2023-11-19T06:58:48;9.30;;;4.60;;
45322;SDS011;31382;50.200;8.674;2023-11-19T07:03:49;11.55;;;4.20;;
45322;SDS011;31382;50.200;8.674;2023-11-19T07:08:52;11.27;;;4.22;;
45322;SDS011;31382;50.200;8.674;2023-11-19T07:13:54;11.25;;;4.85;;
45322;SDS011;31382;50.200;8.674;2023-11-19T07:18:55;15.40;;;4.45;;
45322;SDS011;31382;50.200;8.674;2023-11-19T07:23:57;9.60;;;4.88;;
45322;SDS011;31382;50.200;8.674;2023-11-19T07:28:58;10.23;;;4.75;;
45322;SDS011;31382;50.200;8.674;2023-11-19T07:34:00;9.25;;;4.93;;
45322;SDS011;31382;50.200;8.674;2023-11-19T07:39:01;10.30;;;5.80;;
45322;SDS011;31382;50.200;8.674;2023-11-19T07:44:03;9.75;;;5.03;;
45322;SDS011;31382;50.200;8.674;2023-11-19T07:49:05;9.10;;;4.70;;
45322;SDS011;31382;50.200;8.674;2023-11-19T07:54:06;10.27;;;6.05;;
45322;SDS011;31382;50.200;8.674;2023-11-19T07:59:07;8.10;;;4.10;;
45322;SDS011;31382;50.200;8.674;2023-11-19T08:04:09;7.40;;;3.53;;
45322;SDS011;31382;50.200;8.674;2023-11-19T08:09:11;9.02;;;3.47;;
45322;SDS011;31382;50.200;8.674;2023-11-19T08:14:14;7.03;;;2.95;;
45322;SDS011;31382;50.200;8.674;2023-11-19T08:19:16;5.78;;;3.10;;
45322;SDS011;31382;50.200;8.674;2023-11-19T08:24:17;7.63;;;3.05;;
45322;SDS011;31382;50.200;8.674;2023-11-19T08:29:19;6.30;;;3.33;;
45322;SDS011;31382;50.200;8.674;2023-11-19T08:34:20;8.80;;;3.45;;
45322;SDS011;31382;50.200;8.674;2023-11-19T08:39:22;5.45;;;2.45;;
45322;SDS011;31382;50.200;8.674;2023-11-19T08:44:23;6.15;;;2.85;;
45322;SDS011;31382;50.200;8.674;2023-11-19T08:49:26;9.27;;;3.42;;
45322;SDS011;31382;50.200;8.674;2023-11-19T08:54:27;8.65;;;3.47;;
45322;SDS011;31382;50.200;8.674;2023-11-19T08:59:29;7.13;;;3.78;;
45322;SDS011;31382;50.200;8.674;2023-11-19T09:04:31;8.63;;;4.00;;
45322;SDS011;31382;50.200;8.674;2023-11-19T09:09:32;7.70;;;3.50;;
45322;SDS011;31382;50.200;8.674;2023-11-19T09:14:37;8.50;;;3.55;;
45322;SDS011;31382;50.200;8.674;2023-11-19T09:19:38;5.45;;;2.47;;
45322;SDS011;31382;50.200;8.674;2023-11-19T09:24:39;4.40;;;2.50;;
45322;SDS011;31382;50.200;8.674;2023-11-19T09:29:41;6.40;;;2.70;;
45322;SDS011;31382;50.200;8.674;2023-11-19T09:34:44;7.32;;;2.90;;
45322;SDS011;31382;50.200;8.674;2023-11-19T09:39:45;4.40;;;2.03;;
45322;SDS011;31382;50.200;8.674;2023-11-19T09:44:47;5.35;;;1.40;;
45322;SDS011;31382;50.200;8.674;2023-11-19T09:49:49;3.20;;;1.40;;
45322;SDS011;31382;50.200;8.674;2023-11-19T09:54:51;5.07;;;1.40;;
45322;SDS011;31382;50.200;8.674;2023-11-19T09:59:52;1.35;;;0.52;;
45322;SDS011;31382;50.200;8.674;2023-11-19T10:04:55;3.88;;;0.30;;
45322;SDS011;31382;50.200;8.674;2023-11-19T10:09:57;10.02;;;1.30;;
45322;SDS011;31382;50.200;8.674;2023-11-19T10:14:58;6.20;;;0.40;;
45322;SDS011;31382;50.200;8.674;2023-11-19T10:20:00;4.25;;;0.50;;
45322;SDS011;31382;50.200;8.674;2023-11-19T10:25:02;8.02;;;0.52;;
45322;SDS011;31382;50.200;8.674;2023-11-19T10:30:04;5.50;;;0.38;;
45322;SDS011;31382;50.200;8.674;2023-11-19T10:35:10;10.55;;;0.82;;
45322;SDS011;31382;50.200;8.674;2023-11-19T10:40:15;4.50;;;1.25;;
45322;SDS011;31382;50.200;8.674;2023-11-19T10:45:22;5.93;;;0.50;;
45322;SDS011;31382;50.200;8.674;2023-11-19T10:50:25;3.50;;;0.60;;
45322;SDS011;31382;50.200;8.674;2023-11-19T10:55:28;4.60;;;0.95;;
45322;SDS011;31382;50.200;8.674;2023-11-19T11:00:37;4.85;;;0.30;;
45322;SDS011;31382;50.200;8.674;2023-11-19T11:05:47;9.13;;;0.88;;
45322;SDS011;31382;50.200;8.674;2023-11-19T11:10:54;6.85;;;0.47;;
45322;SDS011;31382;50.200;8.674;2023-11-19T11:15:58;7.32;;;0.60;;
45322;SDS011;31382;50.200;8.674;2023-11-19T11:21:01;7.80;;;0.60;;
45322;SDS011;31382;50.200;8.674;2023-11-19T11:31:58;3.05;;;1.08;;
45322;SDS011;31382;50.200;8.674;2023-11-19T11:37:10;4.70;;;0.50;;
45322;SDS011;31382;50.200;8.674;2023-11-19T11:47:22;6.38;;;0.65;;
45322;SDS011;31382;50.200;8.674;2023-11-19T11:52:24;6.15;;;1.10;;
45322;SDS011;31382;50.200;8.674;2023-11-19T11:57:27;7.35;;;0.75;;
45322;SDS011;31382;50.200;8.674;2023-11-19T12:02:38;10.65;;;0.93;;
45322;SDS011;31382;50.200;8.674;2023-11-19T12:07:40;10.57;;;0.43;;
45322;SDS011;31382;50.200;8.674;2023-11-19T12:12:41;7.22;;;0.50;;
45322;SDS011;31382;50.200;8.674;2023-11-19T12:17:46;6.28;;;0.70;;
45322;SDS011;31382;50.200;8.674;2023-11-19T12:22:53;8.52;;;0.50;;
45322;SDS011;31382;50.200;8.674;2023-11-19T12:27:55;9.10;;;0.43;;
45322;SDS011;31382;50.200;8.674;2023-11-19T12:32:57;13.05;;;0.68;;
45322;SDS011;31382;50.200;8.674;2023-11-19T12:37:59;7.18;;;1.85;;
45322;SDS011;31382;50.200;8.674;2023-11-19T12:43:01;7.20;;;0.73;;
45322;SDS011;31382;50.200;8.674;2023-11-19T12:48:06;7.18;;;0.75;;
45322;SDS011;31382;50.200;8.674;2023-11-19T12:53:09;8.10;;;1.60;;
45322;SDS011;31382;50.200;8.674;2023-11-19T12:58:10;5.60;;;0.80;;
45322;SDS011;31382;50.200;8.674;2023-11-19T13:03:12;6.75;;;1.00;;
45322;SDS011;31382;50.200;8.674;2023-11-19T13:08:13;5.25;;;0.50;;
45322;SDS011;31382;50.200;8.674;2023-11-19T13:13:15;4.35;;;0.30;;
45322;SDS011;31382;50.200;8.674;2023-11-19T13:18:16;5.40;;;0.73;;
45322;SDS011;31382;50.200;8.674;2023-11-19T13:23:18;4.15;;;0.65;;
45322;SDS011;31382;50.200;8.674;2023-11-19T13:28:21;2.97;;;0.30;;
45322;SDS011;31382;50.200;8.674;2023-11-19T13:33:23;8.18;;;0.40;;
45322;SDS011;31382;50.200;8.674;2023-11-19T13:38:25;6.30;;;0.60;;
45322;SDS011;31382;50.200;8.674;2023-11-19T13:43:27;3.58;;;0.32;;
45322;SDS011;31382;50.200;8.674;2023-11-19T13:48:29;6.05;;;0.50;;
45322;SDS011;31382;50.200;8.674;2023-11-19T13:53:31;5.57;;;0.45;;
45322;SDS011;31382;50.200;8.674;2023-11-19T13:58:32;4.53;;;0.60;;
45322;SDS011;31382;50.200;8.674;2023-11-19T14:03:33;5.50;;;0.47;;
45322;SDS011;31382;50.200;8.674;2023-11-19T14:08:36;7.15;;;0.82;;
45322;SDS011;31382;50.200;8.674;2023-11-19T14:13:37;7.63;;;0.70;;
45322;SDS011;31382;50.200;8.674;2023-11-19T14:18:40;4.07;;;0.40;;
45322;SDS011;31382;50.200;8.674;2023-11-19T14:23:43;6.15;;;0.40;;
45322;SDS011;31382;50.200;8.674;2023-11-19T14:28:44;6.57;;;0.50;;
45322;SDS011;31382;50.200;8.674;2023-11-19T14:33:49;5.07;;;0.77;;
45322;SDS011;31382;50.200;8.674;2023-11-19T14:38:50;3.13;;;0.30;;
45322;SDS011;31382;50.200;8.674;2023-11-19T14:43:52;4.43;;;1.15;;
45322;SDS011;31382;50.200;8.674;2023-11-19T14:48:53;3.60;;;0.82;;
45322;SDS011;31382;50.200;8.674;2023-11-19T14:53:55;6.72;;;0.60;;
45322;SDS011;31382;50.200;8.674;2023-11-19T14:58:56;4.80;;;0.32;;
45322;SDS011;31382;50.200;8.674;2023-11-19T15:03:58;8.35;;;1.42;;
45322;SDS011;31382;50.200;8.674;2023-11-19T15:09:05;4.03;;;0.45;;
45322;SDS011;31382;50.200;8.674;2023-11-19T15:14:08;4.38;;;0.40;;
45322;SDS011;31382;50.200;8.674;2023-11-19T15:19:10;5.68;;;0.28;;
45322;SDS011;31382;50.200;8.674;2023-11-19T15:24:13;4.85;;;0.95;;
45322;SDS011;31382;50.200;8.674;2023-11-19T15:29:15;7.03;;;1.02;;
45322;SDS011;31382;50.200;8.674;2023-11-19T15:34:16;5.03;;;0.40;;
45322;SDS011;31382;50.200;8.674;2023-11-19T15:39:17;6.03;;;0.52;;
45322;SDS011;31382;50.200;8.674;2023-11-19T15:44:20;6.15;;;0.32;;
45322;SDS011;31382;50.200;8.674;2023-11-19T15:49:22;7.55;;;1.10;;
45322;SDS011;31382;50.200;8.674;2023-11-19T15:54:23;8.25;;;0.30;;
45322;SDS011;31382;50.200;8.674;2023-11-19T15:59:25;7.07;;;0.45;;
45322;SDS011;31382;50.200;8.674;2023-11-19T16:04:26;5.25;;;0.70;;
45322;SDS011;31382;50.200;8.674;2023-11-19T16:09:28;6.25;;;1.10;;
45322;SDS011;31382;50.200;8.674;2023-11-19T16:14:29;12.35;;;0.63;;
45322;SDS011;31382;50.200;8.674;2023-11-19T16:19:31;6.78;;;1.65;;
45322;SDS011;31382;50.200;8.674;2023-11-19T16:24:35;7.18;;;0.63;;
45322;SDS011;31382;50.200;8.674;2023-11-19T16:29:37;8.10;;;0.50;;
45322;SDS011;31382;50.200;8.674;2023-11-19T16:34:39;6.55;;;0.60;;
45322;SDS011;31382;50.200;8.674;2023-11-19T16:39:43;6.32;;;0.65;;
45322;SDS011;31382;50.200;8.674;2023-11-19T16:44:45;9.70;;;0.85;;
45322;SDS011;31382;50.200;8.674;2023-11-19T16:49:46;7.18;;;1.08;;
45322;SDS011;31382;50.200;8.674;2023-11-19T16:54:48;6.88;;;1.70;;
45322;SDS011;31382;50.200;8.674;2023-11-19T16:59:49;7.53;;;0.77;;
45322;SDS011;31382;50.200;8.674;2023-11-19T17:04:57;9.73;;;0.93;;
45322;SDS011;31382;50.200;8.674;2023-11-19T17:09:59;6.65;;;0.75;;
45322;SDS011;31382;50.200;8.674;2023-11-19T17:15:00;3.95;;;0.40;;
45322;SDS011;31382;50.200;8.674;2023-11-19T17:20:06;3.38;;;0.45;;
45322;SDS011;31382;50.200;8.674;2023-11-19T17:25:08;7.13;;;1.20;;
45322;SDS011;31382;50.200;8.674;2023-11-19T17:30:14;4.53;;;1.00;;
45322;SDS011;31382;50.200;8.674;2023-11-19T17:35:17;13.95;;;1.30;;
45322;SDS011;31382;50.200;8.674;2023-11-19T17:40:19;5.13;;;1.42;;
45322;SDS011;31382;50.200;8.674;2023-11-19T17:45:22;3.92;;;0.52;;
45322;SDS011;31382;50.200;8.674;2023-11-19T17:50:23;9.43;;;0.73;;
45322;SDS011;31382;50.200;8.674;2023-11-19T17:55:27;7.80;;;0.70;;
45322;SDS011;31382;50.200;8.674;2023-11-19T18:00:28;2.78;;;0.40;;
45322;SDS011;31382;50.200;8.674;2023-11-19T18:05:29;7.93;;;1.13;;
45322;SDS011;31382;50.200;8.674;2023-11-19T18:10:31;10.63;;;0.88;;
45322;SDS011;31382;50.200;8.674;2023-11-19T18:15:32;9.90;;;0.80;;
45322;SDS011;31382;50.200;8.674;2023-11-19T18:20:38;2.85;;;0.30;;
45322;SDS011;31382;50.200;8.674;2023-11-19T18:25:39;7.30;;;0.52;;
45322;SDS011;31382;50.200;8.674;2023-11-19T18:30:40;7.60;;;0.55;;
45322;SDS011;31382;50.200;8.674;2023-11-19T18:35:42;6.72;;;0.85;;
45322;SDS011;31382;50.200;8.674;2023-11-19T18:40:44;7.57;;;0.60;;
45322;SDS011;31382;50.200;8.674;2023-11-19T18:45:46;5.47;;;0.75;;
45322;SDS011;31382;50.200;8.674;2023-11-19T18:50:48;6.70;;;0.77;;
45322;SDS011;31382;50.200;8.674;2023-11-19T18:55:52;7.53;;;0.80;;
45322;SDS011;31382;50.200;8.674;2023-11-19T19:00:54;7.70;;;0.70;;
45322;SDS011;31382;50.200;8.674;2023-11-19T19:05:55;3.58;;;0.47;;
45322;SDS011;31382;50.200;8.674;2023-11-19T19:10:57;9.15;;;0.75;;
45322;SDS011;31382;50.200;8.674;2023-11-19T19:15:58;5.30;;;0.60;;
45322;SDS011;31382;50.200;8.674;2023-11-19T19:21:00;7.95;;;0.60;;
45322;SDS011;31382;50.200;8.674;2023-11-19T19:26:02;9.23;;;0.80;;
45322;SDS011;31382;50.200;8.674;2023-11-19T19:31:04;8.13;;;0.50;;
45322;SDS011;31382;50.200;8.674;2023-11-19T19:36:06;9.02;;;0.80;;
45322;SDS011;31382;50.200;8.674;2023-11-19T19:41:10;9.40;;;1.35;;
45322;SDS011;31382;50.200;8.674;2023-11-19T19:46:12;6.97;;;0.47;;
45322;SDS011;31382;50.200;8.674;2023-11-19T19:51:13;5.57;;;0.52;;
45322;SDS011;31382;50.200;8.674;2023-11-19T19:56:15;6.32;;;0.50;;
45322;SDS011;31382;50.200;8.674;2023-11-19T20:01:17;5.70;;;0.82;;
45322;SDS011;31382;50.200;8.674;2023-11-19T20:06:19;6.28;;;0.60;;
45322;SDS011;31382;50.200;8.674;2023-11-19T20:11:22;9.77;;;1.00;;
45322;SDS011;31382;50.200;8.674;2023-11-19T20:16:23;7.03;;;0.60;;
45322;SDS011;31382;50.200;8.674;2023-11-19T20:21:25;9.88;;;0.40;;
45322;SDS011;31382;50.200;8.674;2023-11-19T20:26:29;7.07;;;0.95;;
45322;SDS011;31382;50.200;8.674;2023-11-19T20:31:31;11.98;;;1.13;;
45322;SDS011;31382;50.200;8.674;2023-11-19T20:36:33;4.38;;;0.52;;
45322;SDS011;31382;50.200;8.674;2023-11-19T20:41:34;7.72;;;0.50;;
45322;SDS011;31382;50.200;8.674;2023-11-19T20:46:35;9.00;;;1.75;;
45322;SDS011;31382;50.200;8.674;2023-11-19T20:51:37;11.85;;;1.15;;
45322;SDS011;31382;50.200;8.674;2023-11-19T20:56:41;5.95;;;1.13;;
45322;SDS011;31382;50.200;8.674;2023-11-19T21:01:42;6.50;;;0.60;;
45322;SDS011;31382;50.200;8.674;2023-11-19T21:06:44;6.00;;;0.93;;
45322;SDS011;31382;50.200;8.674;2023-11-19T21:11:48;7.22;;;0.57;;
45322;SDS011;31382;50.200;8.674;2023-11-19T21:16:50;4.07;;;0.57;;
45322;SDS011;31382;50.200;8.674;2023-11-19T21:21:52;6.63;;;0.80;;
45322;SDS011;31382;50.200;8.674;2023-11-19T21:26:53;7.70;;;0.70;;
45322;SDS011;31382;50.200;8.674;2023-11-19T21:31:55;8.75;;;0.80;;
45322;SDS011;31382;50.200;8.674;2023-11-19T21:36:57;8.65;;;1.02;;
45322;SDS011;31382;50.200;8.674;2023-11-19T21:41:59;9.50;;;0.60;;
45322;SDS011;31382;50.200;8.674;2023-11-19T21:47:00;9.77;;;0.65;;
45322;SDS011;31382;50.200;8.674;2023-11-19T21:52:02;7.38;;;0.98;;
45322;SDS011;31382;50.200;8.674;2023-11-19T21:57:03;10.43;;;0.73;;
45322;SDS011;31382;50.200;8.674;2023-11-19T22:02:06;6.07;;;0.68;;
45322;SDS011;31382;50.200;8.674;2023-11-19T22:07:07;7.78;;;0.70;;
45322;SDS011;31382;50.200;8.674;2023-11-19T22:12:10;12.30;;;0.65;;
45322;SDS011;31382;50.200;8.674;2023-11-19T22:17:11;12.70;;;1.13;;
45322;SDS011;31382;50.200;8.674;2023-11-19T22:22:13;7.53;;;0.60;;
45322;SDS011;31382;50.200;8.674;2023-11-19T22:27:14;7.88;;;1.58;;
45322;SDS011;31382;50.200;8.674;2023-11-19T22:32:16;13.20;;;0.60;;
45322;SDS011;31382;50.200;8.674;2023-11-19T22:37:20;10.23;;;0.93;;
45322;SDS011;31382;50.200;8.674;2023-11-19T22:42:22;11.10;;;0.65;;
45322;SDS011;31382;50.200;8.674;2023-11-19T22:47:23;9.13;;;0.80;;
45322;SDS011;31382;50.200;8.674;2023-11-19T22:52:24;7.18;;;0.88;;
45322;SDS011;31382;50.200;8.674;2023-11-19T22:57:26;8.65;;;0.90;;
45322;SDS011;31382;50.200;8.674;2023-11-19T23:02:27;11.73;;;1.23;;
45322;SDS011;31382;50.200;8.674;2023-11-19T23:07:31;5.57;;;0.68;;
45322;SDS011;31382;50.200;8.674;2023-11-19T23:12:32;6.95;;;0.82;;
45322;SDS011;31382;50.200;8.674;2023-11-19T23:17:34;10.82;;;0.88;;
45322;SDS011;31382;50.200;8.674;2023-11-19T23:22:35;15.55;;;1.50;;
45322;SDS011;31382;50.200;8.674;2023-11-19T23:27:38;5.50;;;0.93;;
45322;SDS011;31382;50.200;8.674;2023-11-19T23:32:39;4.32;;;0.50;;
45322;SDS011;31382;50.200;8.674;2023-11-19T23:37:41;5.88;;;0.55;;
45322;SDS011;31382;50.200;8.674;2023-11-19T23:42:42;8.35;;;1.17;;
45322;SDS011;31382;50.200;8.674;2023-11-19T23:47:45;6.97;;;0.60;;
45322;SDS011;31382;50.200;8.674;2023-11-19T23:52:46;14.35;;;1.67;;
45322;SDS011;31382;50.200;8.674;2023-11-19T23:57:49;9.93;;;0.75;;
